Time;durP1;ratioP1;P1;durP2;ratioP2;P2;SDS_P1;SDS_P2;PMS_P1;PMS_P2;Temp;Humidity;BMP_temperature;BMP_pressure;BME280_temperature;BME280_humidity;BME280_pressure;Samples;Min_cycle;Max_cycle;Signal;HPM_P1;HPM_P2
2023/08/13 00:01:33;;;;;;;6.53;2.33;;;18.80;99.80;;;;;;6211230;23;20027;-78
2023/08/13 00:03:59;;;;;;;8.73;1.90;;;18.80;99.90;;;;;;6211780;23;20016;-78
2023/08/13 00:06:25;;;;;;;7.25;1.88;;;18.70;99.90;;;;;;6211295;23;20032;-78
2023/08/13 00:08:50;;;;;;;5.90;2.10;;;18.70;99.90;;;;;;6210841;23;19996;-78
2023/08/13 00:11:16;;;;;;;9.75;2.25;;;18.70;99.90;;;;;;6211507;23;20008;-77
2023/08/13 00:13:42;;;;;;;7.40;1.95;;;18.60;99.90;;;;;;6211835;23;20005;-78
2023/08/13 00:16:09;;;;;;;4.72;2.38;;;18.60;99.90;;;;;;6211533;23;20001;-78
2023/08/13 00:18:35;;;;;;;5.45;2.30;;;18.50;99.90;;;;;;6211262;23;20486;-78
2023/08/13 00:21:01;;;;;;;7.68;2.60;;;18.60;99.90;;;;;;6211869;23;20003;-78
2023/08/13 00:23:27;;;;;;;9.40;2.90;;;18.50;99.90;;;;;;6184014;23;20008;-78
2023/08/13 00:25:52;;;;;;;7.00;2.22;;;18.50;99.90;;;;;;6211744;23;20370;-78
2023/08/13 00:28:18;;;;;;;5.97;2.28;;;18.40;99.90;;;;;;6211103;23;20016;-78
2023/08/13 00:30:44;;;;;;;8.48;2.40;;;18.40;99.90;;;;;;6211636;23;20001;-78
2023/08/13 00:33:10;;;;;;;10.95;2.63;;;18.30;99.90;;;;;;6211675;23;20004;-78
2023/08/13 00:35:35;;;;;;;4.45;2.50;;;18.30;99.90;;;;;;6211506;23;20008;-79
2023/08/13 00:38:01;;;;;;;8.18;2.35;;;18.30;99.90;;;;;;6211046;23;20012;-79
2023/08/13 00:40:27;;;;;;;4.82;1.60;;;18.20;99.90;;;;;;6211324;23;20074;-79
2023/08/13 00:42:53;;;;;;;11.02;2.63;;;18.20;99.90;;;;;;6211288;23;20039;-78
2023/08/13 00:45:20;;;;;;;6.78;1.83;;;18.20;99.90;;;;;;6211179;23;20095;-79
2023/08/13 00:47:47;;;;;;;6.80;2.17;;;18.20;99.90;;;;;;6184645;23;20426;-79
2023/08/13 00:50:13;;;;;;;8.98;2.25;;;18.10;99.90;;;;;;6211309;23;20001;-78
2023/08/13 00:52:39;;;;;;;5.78;2.13;;;18.10;99.90;;;;;;6210651;23;20000;-78
2023/08/13 00:55:05;;;;;;;6.85;2.22;;;18.10;99.90;;;;;;6211069;23;20442;-78
2023/08/13 00:57:31;;;;;;;5.50;2.63;;;18.00;99.90;;;;;;6211025;23;20088;-78
2023/08/13 00:59:57;;;;;;;5.32;2.38;;;18.00;99.90;;;;;;6211745;23;20032;-78
2023/08/13 01:02:23;;;;;;;7.32;2.72;;;18.00;99.90;;;;;;6210776;23;20000;-78
2023/08/13 01:04:49;;;;;;;4.90;3.08;;;18.00;99.90;;;;;;6211373;23;20005;-78
2023/08/13 01:07:29;;;;;;;6.20;2.53;;;18.00;99.90;;;;;;6210166;23;20078;-79
2023/08/13 01:10:00;;;;;;;11.93;2.75;;;17.90;99.90;;;;;;6211197;23;20053;-77
2023/08/13 01:12:33;;;;;;;8.38;2.90;;;17.90;99.90;;;;;;6210953;23;19996;-78
2023/08/13 01:15:06;;;;;;;;;;;17.90;99.90;;;;;;6211929;23;20113;-77
2023/08/13 01:17:34;;;;;;;3.92;1.52;;;17.80;99.90;;;;;;6210633;23;19904;-77
2023/08/13 01:20:03;;;;;;;7.82;2.83;;;17.80;99.90;;;;;;6210807;23;20004;-77
2023/08/13 01:22:29;;;;;;;6.88;2.55;;;17.80;99.90;;;;;;6210864;23;20052;-77
2023/08/13 01:24:56;;;;;;;5.88;2.03;;;17.80;99.90;;;;;;6211108;23;20079;-77
2023/08/13 01:27:39;;;;;;;4.32;2.20;;;17.70;99.90;;;;;;6210788;23;20009;-77
2023/08/13 01:30:23;;;;;;;5.57;1.77;;;17.80;99.90;;;;;;6210832;23;19996;-77
2023/08/13 01:32:58;;;;;;;7.38;2.63;;;17.70;99.90;;;;;;6211227;23;20054;-77
2023/08/13 01:35:25;;;;;;;6.45;1.80;;;17.70;99.90;;;;;;6210235;23;20327;-77
2023/08/13 01:37:52;;;;;;;4.50;2.05;;;17.70;99.90;;;;;;6211010;23;20001;-77
2023/08/13 01:40:17;;;;;;;6.32;2.17;;;17.70;99.90;;;;;;6210777;23;20000;-78
2023/08/13 01:42:43;;;;;;;5.53;2.55;;;17.60;99.90;;;;;;6211219;23;20441;-78
2023/08/13 01:45:09;;;;;;;5.05;2.25;;;17.60;99.90;;;;;;6210924;23;20005;-78
2023/08/13 01:47:34;;;;;;;5.68;2.20;;;17.60;99.90;;;;;;6210693;23;20008;-77
2023/08/13 01:50:00;;;;;;;4.05;2.10;;;17.60;99.90;;;;;;6210420;23;20091;-77
2023/08/13 01:52:26;;;;;;;2.88;1.67;;;17.60;99.90;;;;;;6184031;23;20012;-77
2023/08/13 01:54:51;;;;;;;8.25;2.38;;;17.50;99.90;;;;;;6210489;23;20017;-77
2023/08/13 01:57:17;;;;;;;7.15;1.92;;;17.60;99.90;;;;;;6210521;23;19997;-77
2023/08/13 01:59:42;;;;;;;4.57;2.30;;;17.50;99.90;;;;;;6211132;23;20004;-77
2023/08/13 02:02:08;;;;;;;10.48;2.15;;;17.50;99.90;;;;;;6210716;23;20005;-77
2023/08/13 02:04:34;;;;;;;11.00;2.20;;;17.50;99.90;;;;;;6210021;23;20157;-77
2023/08/13 02:06:59;;;;;;;6.20;2.95;;;17.50;99.90;;;;;;6211022;23;20076;-77
2023/08/13 02:09:25;;;;;;;4.88;2.00;;;17.50;99.90;;;;;;6210181;23;20423;-77
2023/08/13 02:11:50;;;;;;;6.22;2.85;;;17.40;99.90;;;;;;6210987;23;20012;-77
2023/08/13 02:14:16;;;;;;;6.20;3.10;;;17.40;99.90;;;;;;6183461;23;20055;-77
2023/08/13 02:16:41;;;;;;;8.32;2.60;;;17.40;99.90;;;;;;6210953;23;20083;-77
2023/08/13 02:19:07;;;;;;;4.60;1.60;;;17.40;99.90;;;;;;6212172;23;20004;-77
2023/08/13 02:21:32;;;;;;;4.88;1.83;;;17.40;99.90;;;;;;6212456;23;20071;-78
2023/08/13 02:23:58;;;;;;;5.40;2.22;;;17.40;99.90;;;;;;6212728;23;20036;-78
2023/08/13 02:26:24;;;;;;;6.07;2.28;;;17.30;99.90;;;;;;6212666;23;19997;-77
2023/08/13 02:28:49;;;;;;;9.13;2.53;;;17.30;99.90;;;;;;6186193;23;20016;-77
2023/08/13 02:31:15;;;;;;;8.20;2.50;;;17.30;99.90;;;;;;6212488;23;20001;-78
2023/08/13 02:33:40;;;;;;;6.13;1.42;;;17.30;99.90;;;;;;6212441;23;20473;-78
2023/08/13 02:36:06;;;;;;;6.07;1.90;;;17.30;99.90;;;;;;6212709;23;20028;-78
2023/08/13 02:38:31;;;;;;;6.43;2.50;;;17.30;99.90;;;;;;6212381;23;20009;-78
2023/08/13 02:40:57;;;;;;;4.45;1.92;;;17.30;99.90;;;;;;6212691;23;20035;-78
2023/08/13 02:43:26;;;;;;;6.72;1.88;;;17.30;99.90;;;;;;6212251;23;20089;-77
2023/08/13 02:45:52;;;;;;;6.55;1.83;;;17.30;99.90;;;;;;6212631;23;20084;-78
2023/08/13 02:48:17;;;;;;;5.00;1.92;;;17.20;99.90;;;;;;6211523;23;20028;-78
2023/08/13 02:50:43;;;;;;;5.82;2.00;;;17.20;99.90;;;;;;6212654;23;19996;-78
2023/08/13 02:53:08;;;;;;;7.28;2.72;;;17.20;99.90;;;;;;6212364;23;20728;-77
2023/08/13 02:55:34;;;;;;;8.10;2.20;;;17.20;99.90;;;;;;6212074;23;20028;-78
2023/08/13 02:58:01;;;;;;;9.63;2.65;;;17.20;99.90;;;;;;6212864;23;20021;-78
2023/08/13 03:00:27;;;;;;;7.00;1.92;;;17.10;99.90;;;;;;6211834;23;20076;-78
2023/08/13 03:02:52;;;;;;;6.65;1.95;;;17.10;99.90;;;;;;6211768;23;20016;-79
2023/08/13 03:05:18;;;;;;;8.23;2.42;;;17.10;99.90;;;;;;6211985;23;20067;-77
2023/08/13 03:07:43;;;;;;;7.57;1.90;;;17.10;99.90;;;;;;6185917;23;20084;-77
2023/08/13 03:10:09;;;;;;;8.23;2.20;;;17.10;99.90;;;;;;6212328;23;20000;-77
2023/08/13 03:12:35;;;;;;;8.55;2.03;;;17.10;99.90;;;;;;6185043;23;20004;-77
2023/08/13 03:15:00;;;;;;;8.80;2.25;;;17.10;99.90;;;;;;6211249;23;20004;-77
2023/08/13 03:17:26;;;;;;;6.20;2.20;;;17.10;99.90;;;;;;6208658;23;20102;-77
2023/08/13 03:19:51;;;;;;;8.48;1.83;;;17.10;99.90;;;;;;6211962;23;20011;-77
2023/08/13 03:22:17;;;;;;;9.73;2.95;;;17.10;99.90;;;;;;6210398;23;20484;-77
2023/08/13 03:24:43;;;;;;;8.48;1.88;;;17.10;99.90;;;;;;6211180;23;20312;-78
2023/08/13 03:27:08;;;;;;;9.80;3.13;;;17.00;99.90;;;;;;6185275;23;20027;-78
2023/08/13 03:29:34;;;;;;;7.22;2.47;;;17.00;99.90;;;;;;6211460;23;20011;-77
2023/08/13 03:31:59;;;;;;;5.22;2.10;;;17.00;99.90;;;;;;6211694;23;20490;-77
2023/08/13 03:34:25;;;;;;;5.13;2.15;;;17.00;99.90;;;;;;6211455;23;20008;-77
2023/08/13 03:36:52;;;;;;;7.10;2.53;;;17.00;99.90;;;;;;6211774;23;20008;-77
2023/08/13 03:39:18;;;;;;;5.70;1.83;;;17.00;99.90;;;;;;6184978;23;20338;-77
2023/08/13 03:41:43;;;;;;;6.28;2.40;;;17.00;99.90;;;;;;6210655;23;20000;-77
2023/08/13 03:44:09;;;;;;;8.68;2.33;;;17.00;99.90;;;;;;6211701;23;20115;-77
2023/08/13 03:46:35;;;;;;;8.02;2.72;;;17.00;99.90;;;;;;6211191;23;20095;-77
2023/08/13 03:49:00;;;;;;;7.65;2.25;;;16.90;99.90;;;;;;6211814;23;20029;-77
2023/08/13 03:51:26;;;;;;;9.65;2.55;;;16.90;99.90;;;;;;6211004;23;20423;-78
2023/08/13 03:53:51;;;;;;;5.82;2.00;;;16.90;99.90;;;;;;6211533;23;20047;-77
2023/08/13 03:56:17;;;;;;;6.30;2.40;;;16.90;99.90;;;;;;6211104;23;20008;-78
2023/08/13 03:58:42;;;;;;;4.88;2.08;;;16.90;99.90;;;;;;6211759;23;20032;-78
2023/08/13 04:01:08;;;;;;;6.03;1.83;;;16.80;99.90;;;;;;6210928;23;20157;-78
2023/08/13 04:03:34;;;;;;;6.50;2.53;;;16.90;99.90;;;;;;6211538;23;20004;-77
2023/08/13 04:05:59;;;;;;;10.15;2.60;;;16.80;99.90;;;;;;6211665;23;20308;-78
2023/08/13 04:08:25;;;;;;;9.32;2.30;;;16.90;99.90;;;;;;6211200;23;20005;-78
2023/08/13 04:10:51;;;;;;;7.50;2.13;;;16.80;99.90;;;;;;6184787;23;20083;-78
2023/08/13 04:13:17;;;;;;;7.75;2.15;;;16.80;99.90;;;;;;6211180;23;20016;-77
2023/08/13 04:15:43;;;;;;;6.63;2.60;;;16.80;99.90;;;;;;6211110;23;20078;-78
2023/08/13 04:18:09;;;;;;;9.27;3.22;;;16.80;99.90;;;;;;6211528;23;20015;-78
2023/08/13 04:20:39;;;;;;;7.40;3.03;;;16.80;99.90;;;;;;6210919;23;20013;-77
2023/08/13 04:23:05;;;;;;;7.18;2.17;;;16.80;99.90;;;;;;6211131;23;20079;-78
2023/08/13 04:25:31;;;;;;;8.45;2.63;;;16.80;99.90;;;;;;6211002;23;20039;-77
2023/08/13 04:27:57;;;;;;;7.97;2.35;;;16.90;99.90;;;;;;6211239;23;20055;-77
2023/08/13 04:30:22;;;;;;;6.93;2.15;;;16.80;99.90;;;;;;6210061;23;19992;-77
2023/08/13 04:32:53;;;;;;;6.85;1.95;;;16.80;99.90;;;;;;6184816;23;20004;-77
2023/08/13 04:35:19;;;;;;;9.23;2.33;;;16.90;99.90;;;;;;6210969;23;20480;-78
2023/08/13 04:37:45;;;;;;;8.18;2.55;;;16.90;99.90;;;;;;6211394;23;20028;-77
2023/08/13 04:40:11;;;;;;;6.20;1.98;;;16.90;99.90;;;;;;6210918;23;20418;-78
2023/08/13 04:42:36;;;;;;;5.45;2.80;;;16.90;99.90;;;;;;6210844;23;20050;-78
2023/08/13 04:45:02;;;;;;;8.23;2.53;;;17.00;99.90;;;;;;6183664;23;20438;-78
2023/08/13 04:47:28;;;;;;;9.55;2.38;;;17.00;99.90;;;;;;6211164;23;20000;-78
2023/08/13 04:49:53;;;;;;;5.45;1.95;;;17.00;99.90;;;;;;6211168;23;20406;-78
2023/08/13 04:52:19;;;;;;;6.22;1.90;;;17.10;99.90;;;;;;6210865;23;20001;-78
2023/08/13 04:54:46;;;;;;;6.63;1.88;;;17.10;99.90;;;;;;6211174;23;20020;-79
2023/08/13 04:57:12;;;;;;;5.10;2.10;;;17.10;99.90;;;;;;6211375;23;20028;-78
2023/08/13 04:59:37;;;;;;;10.80;2.70;;;17.20;99.90;;;;;;6210249;23;20011;-78
2023/08/13 05:02:03;;;;;;;8.50;2.17;;;17.10;99.90;;;;;;6211068;23;19996;-78
2023/08/13 05:04:29;;;;;;;7.05;2.13;;;17.20;99.90;;;;;;6210764;23;20008;-78
2023/08/13 05:06:54;;;;;;;12.25;2.78;;;17.30;99.90;;;;;;6211417;23;20001;-79
2023/08/13 05:09:20;;;;;;;5.55;2.25;;;17.30;99.90;;;;;;6184045;23;20008;-78
2023/08/13 05:11:45;;;;;;;5.82;2.70;;;17.30;99.90;;;;;;6184377;23;20008;-78
2023/08/13 05:14:11;;;;;;;7.38;2.47;;;17.40;99.90;;;;;;6184041;23;20004;-78
2023/08/13 05:16:37;;;;;;;6.32;2.05;;;17.40;99.90;;;;;;6210831;23;20374;-78
2023/08/13 05:19:03;;;;;;;9.70;2.22;;;17.40;99.90;;;;;;6210720;23;20297;-76
2023/08/13 05:21:28;;;;;;;7.60;2.17;;;17.50;99.90;;;;;;6210814;23;19997;-77
2023/08/13 05:23:54;;;;;;;9.73;2.72;;;17.50;99.90;;;;;;6210946;23;20008;-77
2023/08/13 05:26:20;;;;;;;11.10;2.60;;;17.50;99.90;;;;;;6209105;23;20055;-77
2023/08/13 05:28:45;;;;;;;7.28;2.03;;;17.60;99.90;;;;;;6211034;23;20020;-78
2023/08/13 05:31:11;;;;;;;8.00;2.58;;;17.60;99.90;;;;;;6210988;23;20009;-78
2023/08/13 05:33:37;;;;;;;6.00;1.98;;;17.70;99.90;;;;;;6184090;23;20078;-78
2023/08/13 05:36:03;;;;;;;9.55;2.13;;;17.70;99.90;;;;;;6207968;23;20354;-78
2023/08/13 05:38:30;;;;;;;7.15;2.58;;;17.70;99.90;;;;;;6209154;23;19997;-79
2023/08/13 05:40:55;;;;;;;13.25;3.55;;;17.70;99.90;;;;;;6208765;23;20000;-78
2023/08/13 05:43:21;;;;;;;7.70;2.80;;;17.80;99.90;;;;;;6209360;23;20027;-78
2023/08/13 05:45:46;;;;;;;6.70;2.63;;;17.70;99.90;;;;;;6210900;23;19997;-79
2023/08/13 05:48:12;;;;;;;8.38;2.70;;;17.80;99.90;;;;;;6210636;23;20001;-79
2023/08/13 05:50:38;;;;;;;9.82;2.47;;;17.80;99.90;;;;;;6210557;23;20001;-79
2023/08/13 05:53:03;;;;;;;7.97;2.35;;;17.80;99.90;;;;;;6211781;23;20007;-79
2023/08/13 05:55:29;;;;;;;8.45;2.90;;;17.80;99.90;;;;;;6212006;23;20047;-78
2023/08/13 05:57:54;;;;;;;6.88;2.60;;;17.80;99.90;;;;;;6212992;23;20441;-77
2023/08/13 06:00:20;;;;;;;7.80;3.63;;;17.80;99.90;;;;;;6212368;23;20370;-78
2023/08/13 06:02:46;;;;;;;7.97;2.60;;;17.80;99.90;;;;;;6212981;23;20437;-77
2023/08/13 06:05:11;;;;;;;7.35;3.13;;;17.80;99.90;;;;;;6212500;23;20008;-78
2023/08/13 06:07:37;;;;;;;9.43;2.70;;;17.80;99.90;;;;;;6212365;23;19996;-78
2023/08/13 06:10:04;;;;;;;11.25;2.58;;;17.90;99.90;;;;;;6185230;23;20009;-79
2023/08/13 06:12:30;;;;;;;6.57;3.00;;;17.90;99.90;;;;;;6212527;23;20001;-78
2023/08/13 06:14:56;;;;;;;6.60;3.00;;;18.00;99.90;;;;;;6212937;23;20027;-78
2023/08/13 06:17:22;;;;;;;7.00;2.40;;;18.00;99.90;;;;;;6212216;23;20446;-79
2023/08/13 06:19:47;;;;;;;9.45;2.92;;;18.00;99.90;;;;;;6212655;23;20005;-79
2023/08/13 06:22:14;;;;;;;8.10;2.95;;;18.00;99.90;;;;;;6212392;23;20438;-79
2023/08/13 06:24:39;;;;;;;9.98;3.08;;;18.00;99.90;;;;;;6212117;23;20004;-79
2023/08/13 06:27:05;;;;;;;5.50;2.08;;;18.10;99.90;;;;;;6212432;23;20011;-79
2023/08/13 06:29:30;;;;;;;8.40;2.35;;;18.10;99.90;;;;;;6212566;23;20051;-77
2023/08/13 06:31:56;;;;;;;6.68;2.88;;;18.20;99.90;;;;;;6212533;23;20354;-77
2023/08/13 06:34:22;;;;;;;11.07;3.05;;;18.20;99.90;;;;;;6212213;23;20047;-77
2023/08/13 06:36:47;;;;;;;8.63;3.05;;;18.30;99.90;;;;;;6212591;23;20004;-78
2023/08/13 06:39:13;;;;;;;8.45;3.45;;;18.40;99.90;;;;;;6211397;23;20326;-79
2023/08/13 06:41:38;;;;;;;5.75;2.78;;;18.40;99.90;;;;;;6211873;23;20001;-78
2023/08/13 06:44:05;;;;;;;8.80;2.60;;;18.50;99.90;;;;;;6212314;23;20373;-77
2023/08/13 06:46:31;;;;;;;12.65;3.65;;;18.60;99.90;;;;;;6212080;23;20001;-81
2023/08/13 06:48:57;;;;;;;5.65;2.55;;;18.70;99.90;;;;;;6212449;23;20004;-82
2023/08/13 06:51:22;;;;;;;7.78;2.65;;;18.70;99.90;;;;;;6211781;23;20427;-82
2023/08/13 06:53:48;;;;;;;5.45;2.97;;;18.80;99.90;;;;;;6211382;23;20013;-80
2023/08/13 06:56:13;;;;;;;9.27;3.47;;;18.80;99.90;;;;;;6212598;23;20000;-82
2023/08/13 06:58:39;;;;;;;9.07;3.30;;;18.90;99.90;;;;;;6212420;23;20331;-82
2023/08/13 07:01:05;;;;;;;6.95;3.40;;;18.90;99.90;;;;;;6212172;23;20001;-82
2023/08/13 07:03:31;;;;;;;5.38;2.22;;;19.00;99.90;;;;;;6211470;23;20008;-81
2023/08/13 07:05:56;;;;;;;7.88;3.42;;;19.10;99.90;;;;;;6212047;23;20375;-82
2023/08/13 07:08:23;;;;;;;8.95;3.05;;;19.10;99.90;;;;;;6184380;23;20008;-81
2023/08/13 07:10:49;;;;;;;8.27;3.40;;;19.10;99.90;;;;;;6185189;23;20433;-82
2023/08/13 07:13:15;;;;;;;7.22;2.65;;;19.20;99.90;;;;;;6211848;23;20001;-82
2023/08/13 07:15:41;;;;;;;9.75;2.78;;;19.20;99.90;;;;;;6212126;23;20173;-81
2023/08/13 07:18:07;;;;;;;10.30;3.03;;;19.30;99.90;;;;;;6185159;23;20008;-85
2023/08/13 07:20:33;;;;;;;7.90;2.47;;;19.30;99.90;;;;;;6211950;23;20391;-81
2023/08/13 07:23:00;;;;;;;4.72;2.70;;;19.40;99.90;;;;;;6211795;23;20048;-81
2023/08/13 07:25:26;;;;;;;11.63;3.03;;;19.40;99.90;;;;;;6185071;23;20011;-82
2023/08/13 07:27:52;;;;;;;7.00;2.63;;;19.50;99.90;;;;;;6185298;23;20083;-82
2023/08/13 07:30:18;;;;;;;8.43;2.90;;;19.60;99.90;;;;;;6184603;23;20382;-81
2023/08/13 07:32:44;;;;;;;6.03;1.83;;;19.80;99.90;;;;;;6212121;23;20066;-82
2023/08/13 07:35:10;;;;;;;7.47;2.10;;;20.00;99.90;;;;;;6212023;23;20005;-82
2023/08/13 07:37:36;;;;;;;4.85;1.80;;;20.20;99.90;;;;;;6211115;23;20004;-83
2023/08/13 07:40:07;;;;;;;11.90;2.58;;;20.40;99.90;;;;;;6184881;23;20143;-81
2023/08/13 07:42:33;;;;;;;8.02;2.67;;;20.60;99.90;;;;;;6211751;23;20057;-82
2023/08/13 07:44:59;;;;;;;4.25;1.83;;;20.80;99.90;;;;;;6185555;23;20013;-82
2023/08/13 07:47:24;;;;;;;6.07;2.17;;;21.00;99.90;;;;;;6211472;23;20326;-81
2023/08/13 07:49:50;;;;;;;6.68;1.73;;;21.20;99.90;;;;;;6185291;23;20070;-78
2023/08/13 07:52:16;;;;;;;6.75;1.75;;;21.40;99.90;;;;;;6210399;23;20024;-77
2023/08/13 07:54:41;;;;;;;7.28;1.98;;;21.60;99.90;;;;;;6211133;23;20019;-80
2023/08/13 07:57:07;;;;;;;5.20;1.83;;;21.70;99.90;;;;;;6211355;23;20001;-77
2023/08/13 07:59:33;;;;;;;10.70;2.65;;;21.80;99.90;;;;;;6211146;23;20170;-77
2023/08/13 08:01:59;;;;;;;4.32;2.17;;;21.80;99.90;;;;;;6184975;23;20052;-78
2023/08/13 08:04:25;;;;;;;9.68;2.00;;;21.70;99.90;;;;;;6183973;23;20434;-77
2023/08/13 08:06:50;;;;;;;3.83;1.33;;;21.70;99.90;;;;;;6210678;23;20073;-77
2023/08/13 08:09:16;;;;;;;9.02;2.03;;;21.60;99.90;;;;;;6210752;23;20402;-77
2023/08/13 08:11:41;;;;;;;8.15;2.25;;;21.60;99.90;;;;;;6211377;23;20075;-78
2023/08/13 08:14:07;;;;;;;5.47;1.40;;;21.70;99.90;;;;;;6184618;23;20005;-78
2023/08/13 08:16:33;;;;;;;7.40;1.92;;;21.90;99.90;;;;;;6211203;23;20008;-78
2023/08/13 08:18:59;;;;;;;7.45;2.13;;;22.20;99.90;;;;;;6184887;23;20005;-78
2023/08/13 08:21:25;;;;;;;7.90;2.10;;;22.30;99.90;;;;;;6210135;23;20128;-78
2023/08/13 08:23:50;;;;;;;7.78;2.30;;;22.50;99.90;;;;;;6211343;23;20012;-77
2023/08/13 08:26:16;;;;;;;7.25;2.60;;;22.50;99.80;;;;;;6210670;23;20009;-77
2023/08/13 08:28:41;;;;;;;9.90;2.08;;;22.50;99.70;;;;;;6211667;23;20068;-78
2023/08/13 08:31:07;;;;;;;4.80;1.50;;;22.50;99.70;;;;;;6211012;23;20405;-77
2023/08/13 08:33:32;;;;;;;6.30;1.55;;;22.50;99.80;;;;;;6210902;23;20017;-77
2023/08/13 08:35:58;;;;;;;9.27;1.95;;;22.50;99.60;;;;;;6184013;23;20439;-77
2023/08/13 08:38:24;;;;;;;9.45;1.83;;;22.50;99.50;;;;;;6183769;23;20159;-81
2023/08/13 08:40:52;;;;;;;6.25;1.67;;;22.60;99.60;;;;;;6184178;23;20012;-77
2023/08/13 08:43:18;;;;;;;8.13;1.85;;;22.60;99.60;;;;;;6210527;23;20413;-77
2023/08/13 08:45:44;;;;;;;10.98;2.03;;;22.60;99.50;;;;;;6211179;23;19992;-76
2023/08/13 08:48:11;;;;;;;9.20;1.95;;;22.60;99.40;;;;;;6210934;23;20001;-78
2023/08/13 08:50:37;;;;;;;6.30;1.83;;;22.60;99.20;;;;;;6210430;23;20001;-77
2023/08/13 08:53:04;;;;;;;7.38;1.90;;;22.60;98.90;;;;;;6210764;23;20391;-78
2023/08/13 08:55:33;;;;;;;8.43;1.80;;;22.60;98.80;;;;;;6210434;23;20013;-78
2023/08/13 08:57:58;;;;;;;6.70;1.70;;;22.60;98.90;;;;;;6210987;23;20658;-76
2023/08/13 09:00:24;;;;;;;6.70;1.92;;;22.60;98.80;;;;;;6183895;23;20036;-78
2023/08/13 09:02:50;;;;;;;7.93;1.85;;;22.70;99.10;;;;;;6183804;23;20035;-78
2023/08/13 09:05:16;;;;;;;5.53;1.55;;;22.70;98.80;;;;;;6209754;23;20009;-76
2023/08/13 09:07:42;;;;;;;5.43;1.52;;;22.70;98.50;;;;;;6210853;23;20027;-78
2023/08/13 09:10:08;;;;;;;8.77;2.58;;;22.80;98.40;;;;;;6210814;23;20098;-76
2023/08/13 09:12:43;;;;;;;7.90;1.92;;;22.80;98.40;;;;;;6210439;23;20008;-76
2023/08/13 09:15:11;;;;;;;4.70;1.65;;;23.00;98.30;;;;;;6185204;23;20015;-76
2023/08/13 09:17:37;;;;;;;6.85;1.67;;;23.10;98.20;;;;;;6211447;23;20414;-76
2023/08/13 09:20:17;;;;;;;4.95;1.50;;;23.20;97.90;;;;;;6184129;23;20130;-76
2023/08/13 09:22:47;;;;;;;5.78;1.83;;;23.30;97.50;;;;;;6185257;23;20005;-76
2023/08/13 09:25:17;;;;;;;5.63;1.75;;;23.40;97.30;;;;;;6185315;23;20022;-76
2023/08/13 09:27:44;;;;;;;8.13;1.90;;;23.50;97.10;;;;;;6211553;23;20076;-76
2023/08/13 09:30:12;;;;;;;9.65;2.38;;;23.60;97.30;;;;;;6184534;23;20083;-76
2023/08/13 09:32:38;;;;;;;7.50;1.80;;;23.80;97.10;;;;;;6184536;23;20008;-76
2023/08/13 09:35:04;;;;;;;7.82;2.15;;;23.90;96.90;;;;;;6211097;23;20076;-76
2023/08/13 09:37:30;;;;;;;11.80;1.80;;;23.90;96.60;;;;;;6184472;23;20016;-76
2023/08/13 09:39:56;;;;;;;5.82;1.45;;;24.00;96.40;;;;;;6212027;23;20005;-76
2023/08/13 09:42:26;;;;;;;8.68;1.88;;;24.00;96.50;;;;;;6211235;23;20012;-76
2023/08/13 09:44:55;;;;;;;6.53;2.05;;;24.10;96.00;;;;;;6211869;23;20004;-75
2023/08/13 09:47:25;;;;;;;8.60;1.63;;;24.20;95.90;;;;;;6183435;23;20578;-75
2023/08/13 09:49:52;;;;;;;6.55;1.60;;;24.40;95.80;;;;;;6184922;23;20334;-75
2023/08/13 09:52:22;;;;;;;8.27;1.63;;;24.50;95.40;;;;;;6211104;23;20009;-76
2023/08/13 09:54:52;;;;;;;10.45;2.03;;;24.60;95.40;;;;;;6192183;23;20426;-75
2023/08/13 09:57:21;;;;;;;7.70;2.10;;;24.60;94.90;;;;;;6210699;23;20083;-77
2023/08/13 09:59:49;;;;;;;8.98;1.50;;;24.70;94.80;;;;;;6211744;23;20028;-76
2023/08/13 10:02:15;;;;;;;5.63;1.42;;;24.60;94.70;;;;;;6209895;23;20407;-76
2023/08/13 10:04:41;;;;;;;8.32;1.92;;;24.70;94.60;;;;;;6211515;23;20007;-76
2023/08/13 10:07:08;;;;;;;6.50;1.58;;;24.70;94.30;;;;;;6211626;23;20545;-76
2023/08/13 10:09:34;;;;;;;5.70;1.70;;;24.70;94.00;;;;;;6211304;23;19996;-76
2023/08/13 10:12:05;;;;;;;11.45;1.85;;;24.70;93.90;;;;;;6210086;23;20048;-76
2023/08/13 10:14:31;;;;;;;5.30;1.50;;;24.80;93.80;;;;;;6211581;23;20418;-78
2023/08/13 10:17:01;;;;;;;4.70;1.92;;;24.80;93.90;;;;;;6209614;23;20011;-77
2023/08/13 10:19:30;;;;;;;5.35;1.45;;;24.90;93.60;;;;;;6210020;23;20449;-78
2023/08/13 10:21:57;;;;;;;6.53;1.70;;;24.90;93.90;;;;;;6211768;23;20419;-78
2023/08/13 10:24:23;;;;;;;6.18;1.70;;;24.90;93.50;;;;;;6210549;23;20012;-78
2023/08/13 10:26:49;;;;;;;3.83;1.65;;;25.00;93.40;;;;;;6211453;23;20004;-78
2023/08/13 10:29:19;;;;;;;5.10;1.60;;;25.10;93.40;;;;;;6211184;23;20001;-79
2023/08/13 10:32:01;;;;;;;5.53;1.95;;;25.20;93.50;;;;;;6209596;23;20001;-79
2023/08/13 10:34:50;;;;;;;3.88;1.70;;;25.30;93.10;;;;;;6209794;23;20036;-78
2023/08/13 10:37:20;;;;;;;3.30;1.35;;;25.30;93.00;;;;;;6211246;23;20011;-78
2023/08/13 10:40:02;;;;;;;5.57;1.05;;;25.20;92.90;;;;;;6213303;23;20028;-79
2023/08/13 10:42:36;;;;;;;5.55;1.42;;;25.20;93.00;;;;;;6213505;23;19997;-79
2023/08/13 10:45:06;;;;;;;7.15;1.52;;;25.10;92.80;;;;;;6213793;23;20011;-79
2023/08/13 10:47:51;;;;;;;6.38;1.90;;;25.00;92.60;;;;;;6212777;23;20241;-79
2023/08/13 10:50:32;;;;;;;7.88;2.03;;;25.00;92.80;;;;;;6212960;23;20024;-78
2023/08/13 10:53:05;;;;;;;5.80;1.33;;;25.00;92.90;;;;;;6213792;23;20004;-79
2023/08/13 10:55:38;;;;;;;7.00;2.03;;;25.00;92.80;;;;;;6213007;23;20017;-79
2023/08/13 10:58:04;;;;;;;7.25;1.83;;;25.00;93.00;;;;;;6214074;23;20050;-78
2023/08/13 11:00:30;;;;;;;6.20;1.60;;;25.00;92.70;;;;;;6212569;23;20000;-78
2023/08/13 11:03:15;;;;;;;6.05;1.70;;;25.00;92.70;;;;;;6186796;23;20442;-78
2023/08/13 11:05:42;;;;;;;7.53;2.20;;;24.90;92.90;;;;;;6213177;23;20079;-78
2023/08/13 11:08:08;;;;;;;4.28;1.50;;;24.90;92.90;;;;;;6212885;23;20003;-78
2023/08/13 11:10:35;;;;;;;5.60;1.67;;;24.80;93.00;;;;;;6213035;23;20040;-79
2023/08/13 11:13:05;;;;;;;6.60;1.65;;;24.80;92.90;;;;;;6186486;23;20049;-77
2023/08/13 11:15:30;;;;;;;5.55;1.70;;;24.80;93.00;;;;;;6212988;23;20039;-78
2023/08/13 11:17:56;;;;;;;4.32;1.80;;;24.90;93.10;;;;;;6213286;23;20008;-78
2023/08/13 11:20:21;;;;;;;6.03;1.50;;;25.10;93.10;;;;;;6186184;23;20323;-78
2023/08/13 11:22:47;;;;;;;7.55;1.95;;;25.40;93.00;;;;;;6212960;23;20330;-78
2023/08/13 11:25:16;;;;;;;7.18;1.85;;;25.50;92.70;;;;;;6211189;23;20012;-78
2023/08/13 11:27:41;;;;;;;4.55;1.50;;;25.60;92.30;;;;;;6213044;23;20255;-78
2023/08/13 11:30:08;;;;;;;7.97;1.95;;;25.70;92.40;;;;;;6212480;23;20655;-78
2023/08/13 11:32:36;;;;;;;5.95;1.88;;;25.70;92.10;;;;;;6212393;23;20095;-78
2023/08/13 11:35:09;;;;;;;6.85;1.70;;;25.70;91.90;;;;;;6212477;23;20084;-78
2023/08/13 11:37:38;;;;;;;4.93;1.80;;;25.60;91.60;;;;;;6185813;23;20434;-78
2023/08/13 11:40:05;;;;;;;8.40;1.80;;;25.50;91.40;;;;;;6212651;23;20024;-79
2023/08/13 11:42:32;;;;;;;8.23;1.70;;;25.40;91.70;;;;;;6212200;23;19997;-80
2023/08/13 11:44:57;;;;;;;5.53;1.92;;;25.40;91.70;;;;;;6212131;23;20419;-78
2023/08/13 11:47:27;;;;;;;5.97;1.70;;;25.50;91.90;;;;;;6212316;23;20051;-79
2023/08/13 11:49:54;;;;;;;4.15;1.90;;;25.60;91.70;;;;;;6185690;23;20001;-79
2023/08/13 11:52:21;;;;;;;3.25;1.48;;;25.70;91.50;;;;;;6185710;23;20019;-80
2023/08/13 11:54:47;;;;;;;7.30;1.65;;;25.90;91.40;;;;;;6212284;23;20018;-79
2023/08/13 11:57:14;;;;;;;5.28;1.52;;;25.90;90.90;;;;;;6212583;23;19997;-79
2023/08/13 11:59:39;;;;;;;2.95;1.42;;;26.00;90.90;;;;;;6212122;23;20000;-79
2023/08/13 12:02:05;;;;;;;4.97;1.60;;;26.10;90.90;;;;;;6212876;23;20007;-79
2023/08/13 12:04:32;;;;;;;7.10;1.20;;;26.20;90.80;;;;;;6212347;23;20012;-79
2023/08/13 12:06:58;;;;;;;3.97;1.30;;;26.30;90.60;;;;;;6212915;23;20406;-79
2023/08/13 12:09:24;;;;;;;7.53;1.65;;;26.40;90.40;;;;;;6212204;23;20072;-79
2023/08/13 12:11:52;;;;;;;10.38;2.67;;;26.40;90.10;;;;;;6185731;23;20043;-79
2023/08/13 12:14:18;;;;;;;5.82;1.80;;;26.40;89.80;;;;;;6211696;23;20009;-78
2023/08/13 12:16:44;;;;;;;7.53;2.15;;;26.50;89.80;;;;;;6212452;23;20093;-78
2023/08/13 12:19:09;;;;;;;7.88;2.25;;;26.60;89.80;;;;;;6212366;23;20011;-78
2023/08/13 12:21:35;;;;;;;6.00;1.92;;;26.70;90.20;;;;;;6212362;23;20016;-78
2023/08/13 12:24:03;;;;;;;4.07;1.92;;;26.70;89.70;;;;;;6212634;23;20001;-78
2023/08/13 12:26:29;;;;;;;5.78;2.35;;;26.80;89.20;;;;;;6185474;23;20009;-79
2023/08/13 12:28:55;;;;;;;7.45;1.77;;;26.90;89.00;;;;;;6185467;23;20378;-78
2023/08/13 12:31:21;;;;;;;7.18;1.35;;;26.90;88.60;;;;;;6212550;23;20000;-78
2023/08/13 12:33:47;;;;;;;6.97;1.98;;;26.80;89.20;;;;;;6212626;23;20054;-78
2023/08/13 12:36:13;;;;;;;8.35;2.33;;;26.70;89.30;;;;;;6185608;23;20400;-78
2023/08/13 12:38:40;;;;;;;4.22;1.25;;;26.70;88.60;;;;;;6212188;23;20000;-78
2023/08/13 12:41:06;;;;;;;5.28;1.50;;;26.70;88.20;;;;;;6212085;23;19997;-78
2023/08/13 12:43:34;;;;;;;7.45;2.13;;;26.70;88.50;;;;;;6184978;23;20092;-78